createdAt,value
2018-03-17T00:00:06.013Z,88.30
2018-03-17T00:01:05.625Z,88.30
2018-03-17T00:02:09.232Z,88.40
2018-03-17T00:03:08.878Z,88.40
2018-03-17T00:04:06.229Z,88.40
2018-03-17T00:05:06.187Z,88.30
2018-03-17T00:06:08.587Z,88.60
2018-03-17T00:07:11.431Z,88.50
2018-03-17T00:08:13.118Z,88.60
2018-03-17T00:09:05.520Z,88.60
2018-03-17T00:10:06.089Z,88.60
2018-03-17T00:11:08.685Z,88.80
2018-03-17T00:12:06.256Z,88.80
2018-03-17T00:13:06.025Z,88.80
2018-03-17T00:14:10.508Z,88.90
2018-03-17T00:15:06.872Z,89.10
2018-03-17T00:16:06.472Z,89.10
2018-03-17T00:17:08.728Z,89.20
2018-03-17T00:18:06.324Z,89.10
2018-03-17T00:19:05.665Z,89.20
2018-03-17T00:20:08.700Z,89.20
2018-03-17T00:21:11.177Z,89.20
2018-03-17T00:22:06.590Z,89.10
2018-03-17T00:23:06.175Z,89.00
2018-03-17T00:24:05.463Z,89.00
2018-03-17T00:25:05.846Z,89.00
2018-03-17T00:26:09.713Z,89.00
2018-03-17T00:27:06.125Z,89.00
2018-03-17T00:28:08.108Z,89.00
2018-03-17T00:29:05.678Z,89.00
2018-03-17T00:30:05.784Z,88.80
2018-03-17T00:31:05.516Z,88.80
2018-03-17T00:32:08.259Z,88.50
2018-03-17T00:33:05.628Z,88.50
2018-03-17T00:34:09.311Z,88.40
2018-03-17T00:35:05.656Z,88.30
2018-03-17T00:36:10.758Z,88.30
2018-03-17T00:37:06.309Z,88.40
2018-03-17T00:38:05.979Z,88.40
2018-03-17T00:39:05.569Z,88.50
2018-03-17T00:40:11.294Z,88.40
2018-03-17T00:41:16.496Z,88.30
2018-03-17T00:42:08.635Z,88.30
2018-03-17T00:43:06.204Z,88.30
2018-03-17T00:44:05.736Z,88.20
2018-03-17T00:45:09.513Z,88.00
2018-03-17T00:46:05.842Z,88.00
2018-03-17T00:47:09.643Z,87.90
2018-03-17T00:48:05.937Z,87.90
2018-03-17T00:49:07.307Z,87.90
2018-03-17T00:50:08.261Z,87.90
2018-03-17T00:51:06.050Z,88.00
2018-03-17T00:52:06.074Z,88.00
2018-03-17T00:53:05.757Z,88.10
2018-03-17T00:54:08.728Z,88.10
2018-03-17T00:55:06.070Z,88.20
2018-03-17T00:56:09.723Z,88.10
2018-03-17T00:57:06.313Z,88.10
2018-03-17T00:58:06.119Z,88.10
2018-03-17T00:59:05.835Z,88.20
2018-03-17T01:00:05.839Z,88.20
2018-03-17T01:01:08.879Z,88.30
2018-03-17T01:02:06.240Z,88.30
2018-03-17T01:03:05.960Z,88.30
2018-03-17T01:04:08.100Z,88.20
2018-03-17T01:05:05.428Z,88.30
2018-03-17T01:06:05.893Z,88.30
2018-03-17T01:07:07.961Z,88.20
2018-03-17T01:08:10.902Z,88.30
2018-03-17T01:09:11.330Z,88.30
2018-03-17T01:10:06.280Z,88.30
2018-03-17T01:11:06.029Z,88.30
2018-03-17T01:12:05.595Z,88.30
2018-03-17T01:13:06.461Z,88.20
2018-03-17T01:14:05.916Z,88.10
2018-03-17T01:15:08.090Z,88.10
2018-03-17T01:16:11.081Z,88.10
2018-03-17T01:17:05.801Z,88.20
2018-03-17T01:18:07.227Z,88.20
2018-03-17T01:19:06.232Z,88.10
2018-03-17T01:20:05.676Z,88.20
2018-03-17T01:21:11.314Z,88.10
2018-03-17T01:22:05.377Z,88.10
2018-03-17T01:23:08.705Z,88.20
2018-03-17T01:24:06.157Z,88.20
2018-03-17T01:25:08.085Z,88.20
2018-03-17T01:26:05.703Z,88.20
2018-03-17T01:27:11.421Z,88.20
2018-03-17T01:28:08.926Z,88.10
2018-03-17T01:29:06.220Z,88.10
2018-03-17T01:30:06.101Z,88.20
2018-03-17T01:31:06.271Z,88.20
2018-03-17T01:32:05.822Z,88.20
2018-03-17T01:33:08.800Z,88.30
2018-03-17T01:34:06.097Z,88.30
2018-03-17T01:35:08.055Z,88.20
2018-03-17T01:36:08.732Z,88.20
2018-03-17T01:37:09.428Z,88.00
2018-03-17T01:38:05.727Z,88.00
2018-03-17T01:39:06.393Z,88.00
2018-03-17T01:40:05.837Z,88.00
2018-03-17T01:41:10.896Z,88.00
2018-03-17T01:42:15.982Z,88.10
2018-03-17T01:43:11.426Z,88.20
2018-03-17T01:44:05.443Z,88.20
2018-03-17T01:45:05.812Z,88.20
2018-03-17T01:46:06.299Z,88.20
2018-03-17T01:47:10.796Z,88.10
2018-03-17T01:48:11.220Z,88.00
2018-03-17T01:49:05.792Z,88.10
2018-03-17T01:50:06.222Z,88.00
2018-03-17T01:51:09.982Z,87.80
2018-03-17T01:52:08.104Z,87.60
2018-03-17T01:53:05.474Z,87.70
2018-03-17T01:54:05.778Z,87.70
2018-03-17T01:55:10.978Z,87.70
2018-03-17T01:56:05.983Z,87.50
2018-03-17T01:57:05.416Z,87.50
2018-03-17T01:58:06.537Z,87.30
2018-03-17T01:59:06.028Z,87.30
2018-03-17T02:00:13.000Z,87.00
2018-03-17T02:01:06.355Z,86.90
2018-03-17T02:02:05.699Z,86.80
2018-03-17T02:03:05.888Z,86.80
2018-03-17T02:04:05.420Z,86.80
2018-03-17T02:05:06.349Z,86.80
2018-03-17T02:06:05.996Z,86.60
2018-03-17T02:07:05.845Z,86.60
2018-03-17T02:08:09.437Z,86.50
2018-03-17T02:09:05.876Z,86.50
2018-03-17T02:10:06.280Z,86.50
2018-03-17T02:11:08.572Z,86.10
2018-03-17T02:12:05.904Z,86.10
2018-03-17T02:13:13.550Z,86.10
2018-03-17T02:14:05.933Z,86.10
2018-03-17T02:15:05.731Z,86.10
2018-03-17T02:16:05.894Z,86.00
2018-03-17T02:17:06.425Z,85.90
2018-03-17T02:18:05.990Z,86.00
2018-03-17T02:19:05.459Z,86.00
2018-03-17T02:20:09.382Z,86.10
2018-03-17T02:21:09.025Z,86.10
2018-03-17T02:22:09.675Z,86.10
2018-03-17T02:23:06.336Z,86.10
2018-03-17T02:24:06.423Z,86.10
2018-03-17T02:25:10.343Z,86.20
2018-03-17T02:26:05.808Z,86.20
2018-03-17T02:27:10.495Z,86.10
2018-03-17T02:28:06.021Z,86.10
2018-03-17T02:29:10.194Z,85.90
2018-03-17T02:30:05.603Z,85.90
2018-03-17T02:31:07.235Z,85.90
2018-03-17T02:32:06.193Z,85.70
2018-03-17T02:33:05.601Z,85.80
2018-03-17T02:34:06.157Z,85.80
2018-03-17T02:35:08.096Z,85.70
2018-03-17T02:36:05.729Z,85.70
2018-03-17T02:37:08.669Z,85.80
2018-03-17T02:38:05.996Z,85.80
2018-03-17T02:39:08.190Z,85.90
2018-03-17T02:40:05.800Z,85.90
2018-03-17T02:41:06.276Z,86.00
2018-03-17T02:42:10.720Z,86.20
2018-03-17T02:43:08.288Z,86.30
2018-03-17T02:44:08.958Z,86.30
2018-03-17T02:45:06.536Z,86.40
2018-03-17T02:46:05.838Z,86.40
2018-03-17T02:47:10.716Z,86.30
2018-03-17T02:48:08.967Z,86.30
2018-03-17T02:49:08.831Z,86.30
2018-03-17T02:50:06.375Z,86.40
2018-03-17T02:51:05.908Z,86.30
2018-03-17T02:52:05.826Z,86.40
2018-03-17T02:53:10.797Z,86.30
2018-03-17T02:54:05.982Z,86.30
2018-03-17T02:55:09.052Z,86.30
2018-03-17T02:56:05.389Z,86.10
2018-03-17T02:57:08.455Z,86.10
2018-03-17T02:58:05.818Z,86.00
2018-03-17T02:59:11.252Z,86.10
2018-03-17T03:00:05.916Z,86.10
2018-03-17T03:01:06.575Z,86.00
2018-03-17T03:02:06.056Z,86.00
2018-03-17T03:03:05.695Z,86.10
2018-03-17T03:04:06.038Z,86.20
2018-03-17T03:05:08.729Z,86.10
2018-03-17T03:06:10.678Z,86.10
2018-03-17T03:07:10.829Z,86.10
2018-03-17T03:08:06.074Z,86.20
2018-03-17T03:09:08.042Z,86.30
2018-03-17T03:10:06.310Z,86.30
2018-03-17T03:11:05.606Z,86.30
2018-03-17T03:12:06.160Z,86.30
2018-03-17T03:13:10.749Z,86.20
2018-03-17T03:14:05.989Z,86.20
2018-03-17T03:15:11.045Z,86.30
2018-03-17T03:16:05.495Z,86.20
2018-03-17T03:17:05.992Z,86.20
2018-03-17T03:18:05.608Z,86.10
2018-03-17T03:19:06.143Z,86.10
2018-03-17T03:20:08.908Z,86.00
2018-03-17T03:21:05.767Z,86.10
2018-03-17T03:22:05.782Z,86.10
2018-03-17T03:23:08.500Z,86.20
2018-03-17T03:24:05.505Z,86.20
2018-03-17T03:25:11.322Z,86.30
2018-03-17T03:26:06.529Z,86.30
2018-03-17T03:27:09.396Z,86.20
2018-03-17T03:28:05.777Z,86.30
2018-03-17T03:29:05.573Z,86.30
2018-03-17T03:30:08.977Z,86.20
2018-03-17T03:31:06.613Z,86.20
2018-03-17T03:32:06.339Z,86.10
2018-03-17T03:33:06.096Z,86.10
2018-03-17T03:34:08.263Z,86.20
2018-03-17T03:35:06.139Z,86.10
2018-03-17T03:36:08.294Z,86.20
2018-03-17T03:37:05.601Z,86.20
2018-03-17T03:38:09.178Z,86.20
2018-03-17T03:39:05.508Z,86.20
2018-03-17T03:40:05.767Z,86.10
2018-03-17T03:41:08.055Z,86.10
2018-03-17T03:42:06.314Z,86.10
2018-03-17T03:43:05.993Z,86.00
2018-03-17T03:44:11.032Z,86.00
2018-03-17T03:45:06.397Z,86.00
2018-03-17T03:46:07.993Z,85.80
2018-03-17T03:47:05.787Z,85.80
2018-03-17T03:48:09.608Z,85.80
2018-03-17T03:49:06.019Z,85.60
2018-03-17T03:50:12.377Z,85.60
2018-03-17T03:51:05.648Z,85.70
2018-03-17T03:52:13.526Z,86.00
2018-03-17T03:53:06.348Z,86.00
2018-03-17T03:54:08.805Z,86.00
2018-03-17T03:55:11.101Z,86.00
2018-03-17T03:56:05.369Z,86.00
2018-03-17T03:57:08.246Z,86.00
2018-03-17T03:58:05.583Z,86.00
2018-03-17T03:59:06.081Z,85.90
2018-03-17T04:00:05.904Z,85.80
2018-03-17T04:01:06.271Z,85.80
2018-03-17T04:02:05.676Z,85.80
2018-03-17T04:03:05.633Z,85.80
2018-03-17T04:04:06.093Z,86.00
2018-03-17T04:05:05.491Z,85.90
2018-03-17T04:06:05.877Z,86.00
2018-03-17T04:07:10.682Z,85.90
2018-03-17T04:08:10.888Z,85.70
2018-03-17T04:09:11.233Z,85.60
2018-03-17T04:10:06.608Z,85.80
2018-03-17T04:11:11.285Z,85.70
2018-03-17T04:12:06.237Z,85.70
2018-03-17T04:13:05.706Z,85.70
2018-03-17T04:14:11.103Z,85.60
2018-03-17T04:15:11.137Z,85.60
2018-03-17T04:16:07.313Z,85.60
2018-03-17T04:17:06.023Z,85.60
2018-03-17T04:18:07.303Z,85.60
2018-03-17T04:19:05.450Z,85.60
2018-03-17T04:20:05.673Z,85.60
2018-03-17T04:21:06.207Z,85.60
2018-03-17T04:22:08.813Z,85.50
2018-03-17T04:23:06.160Z,85.50
2018-03-17T04:24:06.675Z,85.60
2018-03-17T04:25:05.857Z,85.60
2018-03-17T04:26:10.455Z,85.60
2018-03-17T04:27:05.689Z,85.60
2018-03-17T04:28:06.225Z,85.60
2018-03-17T04:29:05.430Z,85.60
2018-03-17T04:30:05.858Z,85.50
2018-03-17T04:31:08.665Z,85.60
2018-03-17T04:32:05.958Z,85.60
2018-03-17T04:33:06.158Z,85.60
2018-03-17T04:34:08.129Z,85.60
2018-03-17T04:35:06.179Z,85.60
2018-03-17T04:36:10.532Z,85.80
2018-03-17T04:37:10.564Z,85.90
2018-03-17T04:38:06.304Z,85.80
2018-03-17T04:39:05.897Z,85.80
2018-03-17T04:40:06.058Z,85.50
2018-03-17T04:41:06.218Z,85.30
2018-03-17T04:42:06.059Z,85.20
2018-03-17T04:43:05.607Z,85.10
2018-03-17T04:44:06.348Z,84.90
2018-03-17T04:45:05.838Z,84.80
2018-03-17T04:46:10.577Z,84.80
2018-03-17T04:47:09.028Z,84.90
2018-03-17T04:48:05.369Z,85.00
2018-03-17T04:49:05.995Z,85.00
2018-03-17T04:50:06.464Z,85.20
2018-03-17T04:51:05.776Z,85.30
2018-03-17T04:52:08.233Z,85.20
2018-03-17T04:53:05.731Z,85.20
2018-03-17T04:54:06.981Z,85.30
2018-03-17T04:55:05.998Z,85.40
2018-03-17T04:56:08.129Z,85.30
2018-03-17T04:57:09.821Z,85.30
2018-03-17T04:58:05.811Z,85.20
2018-03-17T04:59:05.975Z,85.20
2018-03-17T05:00:06.164Z,85.20
2018-03-17T05:01:05.956Z,85.00
2018-03-17T05:02:05.488Z,84.90
2018-03-17T05:03:11.150Z,84.90
2018-03-17T05:04:08.466Z,84.70
2018-03-17T05:05:05.796Z,84.70
2018-03-17T05:06:06.206Z,84.50
2018-03-17T05:07:06.853Z,84.40
2018-03-17T05:08:08.954Z,84.50
2018-03-17T05:09:10.452Z,84.50
2018-03-17T05:10:10.389Z,84.60
2018-03-17T05:11:11.104Z,84.60
2018-03-17T05:12:06.041Z,84.60
2018-03-17T05:13:05.749Z,84.50
2018-03-17T05:14:11.067Z,84.60
2018-03-17T05:15:06.044Z,84.60
2018-03-17T05:16:11.368Z,84.50
2018-03-17T05:17:06.350Z,84.50
2018-03-17T05:18:05.786Z,84.50
2018-03-17T05:19:05.778Z,84.50
2018-03-17T05:20:06.071Z,84.60
2018-03-17T05:21:06.904Z,84.40
2018-03-17T05:22:05.544Z,84.40
2018-03-17T05:23:06.902Z,84.40
2018-03-17T05:24:06.256Z,84.50
2018-03-17T05:25:08.263Z,84.70
2018-03-17T05:26:05.869Z,84.70
2018-03-17T05:27:05.729Z,84.80
2018-03-17T05:28:09.674Z,84.80
2018-03-17T05:29:09.211Z,84.90
2018-03-17T05:30:05.566Z,84.90
2018-03-17T05:31:06.381Z,85.00
2018-03-17T05:32:05.903Z,85.00
2018-03-17T05:33:08.846Z,85.00
2018-03-17T05:34:06.181Z,85.00
2018-03-17T05:35:09.640Z,84.90
2018-03-17T05:36:06.210Z,84.90
2018-03-17T05:37:10.902Z,84.90
2018-03-17T05:38:06.898Z,84.90
2018-03-17T05:39:10.839Z,84.80
2018-03-17T05:40:10.784Z,84.80
2018-03-17T05:41:05.782Z,84.80
2018-03-17T05:42:05.486Z,84.70
2018-03-17T05:43:11.081Z,84.80
2018-03-17T05:44:10.599Z,84.80
2018-03-17T05:45:05.706Z,84.80
2018-03-17T05:46:05.664Z,84.80
2018-03-17T05:47:08.604Z,84.60
2018-03-17T05:48:06.147Z,84.60
2018-03-17T05:49:05.617Z,84.50
2018-03-17T05:50:08.383Z,84.50
2018-03-17T05:51:09.274Z,84.50
2018-03-17T05:52:08.188Z,84.50
2018-03-17T05:53:10.565Z,84.60
2018-03-17T05:54:05.488Z,84.70
2018-03-17T05:55:06.057Z,84.70
2018-03-17T05:56:06.126Z,84.70
2018-03-17T05:57:08.780Z,84.80
2018-03-17T05:58:06.257Z,84.80
2018-03-17T05:59:08.110Z,84.50
2018-03-17T06:00:05.806Z,84.50
2018-03-17T06:01:06.068Z,84.40
2018-03-17T06:02:08.124Z,84.40
2018-03-17T06:03:05.654Z,84.40
2018-03-17T06:04:06.158Z,84.50
2018-03-17T06:05:05.550Z,84.50
2018-03-17T06:06:05.710Z,84.60
2018-03-17T06:07:16.209Z,84.40
2018-03-17T06:08:09.378Z,84.20
2018-03-17T06:09:05.762Z,84.30
2018-03-17T06:10:06.359Z,84.30
2018-03-17T06:11:06.374Z,84.40
2018-03-17T06:12:06.537Z,84.40
2018-03-17T06:13:05.803Z,84.40
2018-03-17T06:14:11.171Z,84.40
2018-03-17T06:15:05.954Z,84.40
2018-03-17T06:16:06.185Z,84.30
2018-03-17T06:17:05.681Z,84.30
2018-03-17T06:18:05.807Z,84.40
2018-03-17T06:19:10.912Z,84.40
2018-03-17T06:20:08.748Z,84.50
2018-03-17T06:21:09.421Z,84.70
2018-03-17T06:22:10.801Z,84.60
2018-03-17T06:23:05.726Z,84.60
2018-03-17T06:24:05.832Z,84.60
2018-03-17T06:25:08.234Z,84.50
2018-03-17T06:26:05.732Z,84.50
2018-03-17T06:27:06.285Z,84.50
2018-03-17T06:28:08.938Z,84.30
2018-03-17T06:29:05.512Z,84.30
2018-03-17T06:30:05.578Z,84.30
2018-03-17T06:31:05.839Z,84.30
2018-03-17T06:32:09.202Z,84.20
2018-03-17T06:33:05.572Z,84.10
2018-03-17T06:34:06.267Z,84.20
2018-03-17T06:35:06.065Z,84.20
2018-03-17T06:36:10.454Z,84.20
2018-03-17T06:37:08.325Z,84.20
2018-03-17T06:38:10.657Z,84.20
2018-03-17T06:39:09.379Z,84.10
2018-03-17T06:40:05.809Z,84.00
2018-03-17T06:41:06.263Z,84.00
2018-03-17T06:42:06.101Z,84.10
2018-03-17T06:43:07.936Z,84.00
2018-03-17T06:44:06.369Z,83.80
2018-03-17T06:45:05.887Z,83.90
2018-03-17T06:46:08.142Z,84.10
2018-03-17T06:47:05.439Z,84.20
2018-03-17T06:48:05.795Z,84.20
2018-03-17T06:49:06.411Z,84.30
2018-03-17T06:50:05.682Z,84.10
2018-03-17T06:51:06.546Z,84.10
2018-03-17T06:52:09.344Z,84.10
2018-03-17T06:53:05.681Z,84.10
2018-03-17T06:54:05.981Z,84.10
2018-03-17T06:55:05.530Z,84.00
2018-03-17T06:56:06.267Z,83.90
2018-03-17T06:57:05.689Z,83.90
2018-03-17T06:58:06.103Z,84.00
2018-03-17T06:59:09.503Z,83.90
2018-03-17T07:00:06.831Z,83.90
2018-03-17T07:01:05.502Z,84.00
2018-03-17T07:02:08.312Z,83.70
2018-03-17T07:03:05.619Z,83.70
2018-03-17T07:04:08.861Z,83.70
2018-03-17T07:05:05.984Z,83.70
2018-03-17T07:06:05.820Z,83.80
2018-03-17T07:07:10.900Z,83.70
2018-03-17T07:08:11.216Z,83.70
2018-03-17T07:09:05.810Z,83.70
2018-03-17T07:10:12.251Z,83.90
2018-03-17T07:11:08.134Z,84.00
2018-03-17T07:12:10.452Z,84.00
2018-03-17T07:13:09.725Z,84.10
2018-03-17T07:14:09.706Z,84.20
2018-03-17T07:15:08.609Z,84.20
2018-03-17T07:16:06.129Z,84.20
2018-03-17T07:17:05.720Z,84.20
2018-03-17T07:18:05.947Z,84.20
2018-03-17T07:19:08.976Z,84.00
2018-03-17T07:20:09.585Z,83.80
2018-03-17T07:21:10.986Z,84.00
2018-03-17T07:22:06.521Z,84.00
2018-03-17T07:23:07.327Z,84.00
2018-03-17T07:24:09.486Z,83.60
2018-03-17T07:25:10.916Z,83.60
2018-03-17T07:26:06.090Z,83.60
2018-03-17T07:27:05.456Z,83.70
2018-03-17T07:28:11.347Z,83.80
2018-03-17T07:29:06.462Z,83.90
2018-03-17T07:30:09.426Z,84.10
2018-03-17T07:31:05.784Z,84.10
2018-03-17T07:32:09.807Z,84.20
2018-03-17T07:33:11.136Z,84.20
2018-03-17T07:34:05.906Z,84.20
2018-03-17T07:35:06.089Z,84.10
2018-03-17T07:36:05.617Z,84.10
2018-03-17T07:37:05.541Z,84.00
2018-03-17T07:38:08.912Z,83.50
2018-03-17T07:39:06.278Z,83.50
2018-03-17T07:40:06.271Z,83.50
2018-03-17T07:41:05.670Z,83.40
2018-03-17T07:42:06.163Z,83.10
2018-03-17T07:43:10.589Z,82.90
2018-03-17T07:44:06.465Z,83.00
2018-03-17T07:45:09.139Z,82.90
2018-03-17T07:46:05.500Z,82.90
2018-03-17T07:47:05.964Z,83.00
2018-03-17T07:48:11.262Z,82.80
2018-03-17T07:49:09.711Z,82.50
2018-03-17T07:50:06.243Z,82.70
2018-03-17T07:51:06.901Z,82.60
2018-03-17T07:52:09.083Z,82.80
2018-03-17T07:53:05.396Z,82.80
2018-03-17T07:54:06.420Z,83.00
2018-03-17T07:55:06.048Z,82.90
2018-03-17T07:56:05.710Z,82.90
2018-03-17T07:57:10.561Z,82.80
2018-03-17T07:58:05.889Z,82.90
2018-03-17T07:59:08.114Z,82.90
2018-03-17T08:00:10.851Z,83.10
2018-03-17T08:01:10.808Z,83.00
2018-03-17T08:02:05.874Z,82.90
2018-03-17T08:03:10.555Z,83.00
2018-03-17T08:04:05.832Z,83.00
2018-03-17T08:05:09.646Z,82.70
2018-03-17T08:06:09.640Z,82.60
2018-03-17T08:07:06.205Z,82.50
2018-03-17T08:08:10.389Z,82.50
2018-03-17T08:09:06.315Z,82.30
2018-03-17T08:10:06.094Z,82.10
2018-03-17T08:11:05.565Z,82.00
2018-03-17T08:12:10.894Z,81.90
2018-03-17T08:13:05.875Z,82.10
2018-03-17T08:14:13.525Z,82.30
2018-03-17T08:15:06.098Z,82.30
2018-03-17T08:16:05.528Z,82.40
2018-03-17T08:17:05.698Z,82.70
2018-03-17T08:18:08.626Z,82.60
2018-03-17T08:19:05.961Z,82.70
2018-03-17T08:20:10.941Z,82.40
2018-03-17T08:21:09.920Z,82.40
2018-03-17T08:22:12.073Z,82.30
2018-03-17T08:23:10.481Z,82.30
2018-03-17T08:24:05.868Z,82.30
2018-03-17T08:25:10.797Z,82.30
2018-03-17T08:26:08.176Z,82.10
2018-03-17T08:27:05.901Z,82.10
2018-03-17T08:28:05.582Z,82.00
2018-03-17T08:29:06.015Z,81.90
2018-03-17T08:30:09.895Z,81.70
2018-03-17T08:31:06.526Z,81.80
2018-03-17T08:32:06.043Z,81.80
2018-03-17T08:33:10.639Z,81.60
2018-03-17T08:34:05.957Z,81.60
2018-03-17T08:35:11.332Z,81.50
2018-03-17T08:36:05.566Z,81.60
2018-03-17T08:37:06.451Z,81.70
2018-03-17T08:38:14.077Z,81.80
2018-03-17T08:39:05.585Z,81.80
2018-03-17T08:40:05.426Z,81.80
2018-03-17T08:41:06.382Z,81.60
2018-03-17T08:42:06.258Z,81.30
2018-03-17T08:43:11.241Z,81.20
2018-03-17T08:44:09.658Z,81.40
2018-03-17T08:45:05.930Z,81.40
2018-03-17T08:46:06.017Z,81.60
2018-03-17T08:47:09.411Z,81.60
2018-03-17T08:48:05.810Z,81.70
2018-03-17T08:49:06.593Z,81.80
2018-03-17T08:50:08.895Z,81.50
2018-03-17T08:51:06.569Z,81.60
2018-03-17T08:52:10.938Z,81.50
2018-03-17T08:53:06.417Z,81.50
2018-03-17T08:54:06.157Z,81.60
2018-03-17T08:55:05.905Z,81.70
2018-03-17T08:56:14.229Z,81.90
2018-03-17T08:57:08.450Z,81.80
2018-03-17T08:58:08.720Z,81.70
2018-03-17T08:59:11.052Z,81.70
2018-03-17T09:00:06.001Z,81.70
2018-03-17T09:01:06.359Z,81.80
2018-03-17T09:02:06.217Z,81.50
2018-03-17T09:03:05.513Z,81.60
2018-03-17T09:04:05.480Z,81.30
2018-03-17T09:05:09.230Z,81.20
2018-03-17T09:06:06.224Z,81.20
2018-03-17T09:07:06.020Z,81.10
2018-03-17T09:08:06.484Z,81.10
2018-03-17T09:09:08.498Z,81.30
2018-03-17T09:10:10.144Z,81.50
2018-03-17T09:11:06.401Z,81.50
2018-03-17T09:12:06.632Z,81.50
2018-03-17T09:13:08.645Z,81.70
2018-03-17T09:14:08.495Z,81.30
2018-03-17T09:15:10.473Z,81.30
2018-03-17T09:16:05.745Z,81.10
2018-03-17T09:17:05.812Z,81.00
2018-03-17T09:18:06.152Z,81.00
2018-03-17T09:19:10.748Z,80.70
2018-03-17T09:20:08.953Z,80.50
2018-03-17T09:21:06.386Z,80.50
2018-03-17T09:22:05.423Z,80.60
2018-03-17T09:23:05.875Z,80.80
2018-03-17T09:24:06.038Z,80.80
2018-03-17T09:25:05.364Z,80.80
2018-03-17T09:26:05.913Z,80.60
2018-03-17T09:27:08.919Z,80.10
2018-03-17T09:28:09.486Z,80.20
2018-03-17T09:29:05.760Z,80.30
2018-03-17T09:30:06.258Z,80.30
2018-03-17T09:31:05.890Z,80.40
2018-03-17T09:32:06.380Z,80.50
2018-03-17T09:33:06.303Z,80.60
2018-03-17T09:34:09.374Z,80.40
2018-03-17T09:35:08.236Z,80.00
2018-03-17T09:36:05.796Z,80.00
2018-03-17T09:37:10.767Z,80.00
2018-03-17T09:38:09.454Z,80.20
2018-03-17T09:39:05.900Z,80.20
2018-03-17T09:40:08.283Z,80.10
2018-03-17T09:41:05.587Z,80.10
2018-03-17T09:42:06.465Z,80.00
2018-03-17T09:43:10.761Z,79.90
2018-03-17T09:44:06.111Z,80.00
2018-03-17T09:45:10.563Z,79.80
2018-03-17T09:46:06.822Z,79.80
2018-03-17T09:47:11.301Z,79.70
2018-03-17T09:48:05.648Z,79.90
2018-03-17T09:49:05.783Z,79.80
2018-03-17T09:50:06.658Z,79.50
2018-03-17T09:51:06.262Z,79.30
2018-03-17T09:52:06.028Z,79.30
2018-03-17T09:53:05.779Z,79.60
2018-03-17T09:54:06.224Z,79.80
2018-03-17T09:55:05.792Z,79.80
2018-03-17T09:56:05.596Z,79.80
2018-03-17T09:57:05.612Z,80.00
2018-03-17T09:58:09.601Z,80.30
2018-03-17T09:59:08.430Z,80.40
2018-03-17T10:00:08.318Z,80.50
2018-03-17T10:01:05.708Z,80.50
2018-03-17T10:02:06.112Z,80.30
2018-03-17T10:03:06.369Z,80.10
2018-03-17T10:04:09.514Z,80.20
2018-03-17T10:05:08.364Z,80.20
2018-03-17T10:06:05.587Z,80.20
2018-03-17T10:07:06.318Z,80.00
2018-03-17T10:08:10.701Z,79.40
2018-03-17T10:09:06.047Z,79.40
2018-03-17T10:10:10.535Z,79.40
2018-03-17T10:11:06.141Z,79.30
2018-03-17T10:12:09.217Z,79.30
2018-03-17T10:13:08.115Z,79.30
2018-03-17T10:14:10.456Z,79.30
2018-03-17T10:15:06.069Z,79.30
2018-03-17T10:16:06.433Z,79.40
2018-03-17T10:17:08.332Z,79.40
2018-03-17T10:18:10.713Z,79.40
2018-03-17T10:19:05.941Z,79.20
2018-03-17T10:20:08.349Z,78.90
2018-03-17T10:21:05.692Z,78.80
2018-03-17T10:22:06.377Z,78.40
2018-03-17T10:23:08.240Z,78.80
2018-03-17T10:24:08.101Z,78.90
2018-03-17T10:25:05.456Z,79.00
2018-03-17T10:26:06.045Z,79.30
2018-03-17T10:27:05.565Z,79.20
2018-03-17T10:28:06.301Z,79.20
2018-03-17T10:29:05.640Z,79.50
2018-03-17T10:30:09.355Z,79.40
2018-03-17T10:31:05.705Z,79.40
2018-03-17T10:32:11.113Z,79.20
2018-03-17T10:33:06.154Z,79.30
2018-03-17T10:34:05.593Z,79.40
2018-03-17T10:35:05.845Z,79.40
2018-03-17T10:36:09.427Z,79.70
2018-03-17T10:37:05.877Z,79.70
2018-03-17T10:38:11.372Z,80.00
2018-03-17T10:39:08.991Z,79.70
2018-03-17T10:40:06.348Z,79.70
2018-03-17T10:41:08.428Z,79.20
2018-03-17T10:42:05.680Z,79.10
2018-03-17T10:43:10.275Z,78.80
2018-03-17T10:44:08.114Z,78.70
2018-03-17T10:45:05.738Z,78.70
2018-03-17T10:46:06.077Z,79.00
2018-03-17T10:47:05.578Z,78.90
2018-03-17T10:48:06.307Z,78.80
2018-03-17T10:49:05.708Z,78.70
2018-03-17T10:50:08.639Z,77.90
2018-03-17T10:51:05.986Z,77.90
2018-03-17T10:52:05.409Z,77.90
2018-03-17T10:53:06.244Z,78.10
2018-03-17T10:54:05.969Z,78.30
2018-03-17T10:55:10.525Z,78.60
2018-03-17T10:56:05.390Z,78.60
2018-03-17T10:57:10.894Z,78.60
2018-03-17T10:58:05.615Z,78.60
2018-03-17T10:59:06.326Z,78.80
2018-03-17T11:00:08.119Z,79.00
2018-03-17T11:01:10.476Z,79.00
2018-03-17T11:02:05.859Z,78.90
2018-03-17T11:03:06.129Z,78.90
2018-03-17T11:04:06.078Z,78.90
2018-03-17T11:05:09.244Z,79.00
2018-03-17T11:06:06.123Z,79.00
2018-03-17T11:07:10.770Z,78.80
2018-03-17T11:08:05.627Z,78.80
2018-03-17T11:09:09.665Z,78.80
2018-03-17T11:10:08.495Z,78.70
2018-03-17T11:11:05.873Z,78.70
2018-03-17T11:12:09.735Z,78.70
2018-03-17T11:13:06.316Z,78.60
2018-03-17T11:14:10.636Z,78.30
2018-03-17T11:15:10.804Z,78.10
2018-03-17T11:16:05.993Z,78.00
2018-03-17T11:17:11.259Z,77.80
2018-03-17T11:18:08.602Z,78.10
2018-03-17T11:19:08.459Z,78.40
2018-03-17T11:20:06.278Z,78.30
2018-03-17T11:21:11.436Z,78.60
2018-03-17T11:22:08.920Z,78.70
2018-03-17T11:23:06.348Z,78.70
2018-03-17T11:24:05.931Z,78.30
2018-03-17T11:25:05.927Z,78.10
2018-03-17T11:26:06.638Z,78.20
2018-03-17T11:27:06.439Z,78.00
2018-03-17T11:28:05.941Z,77.90
2018-03-17T11:29:05.709Z,78.00
2018-03-17T11:30:05.968Z,78.00
2018-03-17T11:31:08.522Z,77.80
2018-03-17T11:32:05.392Z,77.80
2018-03-17T11:33:05.412Z,77.60
2018-03-17T11:34:09.246Z,77.60
2018-03-17T11:35:05.657Z,77.60
2018-03-17T11:36:11.252Z,78.00
2018-03-17T11:37:05.919Z,78.00
2018-03-17T11:38:06.369Z,78.20
2018-03-17T11:39:10.458Z,78.00
2018-03-17T11:40:05.760Z,77.80
2018-03-17T11:41:11.181Z,77.90
2018-03-17T11:42:05.521Z,77.90
2018-03-17T11:43:08.586Z,78.00
2018-03-17T11:44:08.502Z,77.80
2018-03-17T11:45:05.392Z,77.80
2018-03-17T11:46:05.850Z,77.70
2018-03-17T11:47:10.639Z,77.70
2018-03-17T11:48:05.494Z,77.80
2018-03-17T11:49:06.237Z,77.70
2018-03-17T11:50:05.739Z,77.80
2018-03-17T11:51:06.259Z,77.80
2018-03-17T11:52:05.755Z,77.90
2018-03-17T11:53:05.468Z,78.00
2018-03-17T11:54:10.812Z,78.00
2018-03-17T11:55:09.302Z,77.60
2018-03-17T11:56:09.204Z,77.40
2018-03-17T11:57:05.654Z,77.50
2018-03-17T11:58:10.329Z,77.80
2018-03-17T11:59:06.072Z,77.80
2018-03-17T12:00:10.491Z,77.70
2018-03-17T12:01:05.572Z,77.40
2018-03-17T12:02:05.538Z,77.20
2018-03-17T12:03:08.465Z,77.30
2018-03-17T12:04:08.293Z,77.50
2018-03-17T12:05:05.597Z,77.50
2018-03-17T12:06:05.622Z,77.70
2018-03-17T12:07:06.188Z,77.70
2018-03-17T12:08:05.651Z,77.70
2018-03-17T12:09:11.074Z,77.70
2018-03-17T12:10:08.972Z,77.70
2018-03-17T12:11:06.370Z,77.70
2018-03-17T12:12:05.847Z,77.90
2018-03-17T12:13:05.438Z,78.10
2018-03-17T12:14:05.683Z,78.20
2018-03-17T12:15:06.140Z,78.00
2018-03-17T12:16:10.739Z,78.20
2018-03-17T12:17:06.082Z,78.20
2018-03-17T12:18:05.812Z,78.10
2018-03-17T12:19:08.817Z,78.00
2018-03-17T12:20:06.496Z,78.00
2018-03-17T12:21:09.433Z,78.20
2018-03-17T12:22:05.871Z,78.20
2018-03-17T12:23:06.372Z,78.10
2018-03-17T12:24:06.130Z,77.90
2018-03-17T12:25:05.559Z,77.80
2018-03-17T12:26:08.894Z,78.00
2018-03-17T12:27:06.189Z,78.00
2018-03-17T12:28:05.794Z,78.00
2018-03-17T12:29:06.341Z,78.30
2018-03-17T12:30:08.647Z,78.40
2018-03-17T12:31:06.354Z,78.40
2018-03-17T12:32:05.732Z,78.30
2018-03-17T12:33:06.286Z,78.30
2018-03-17T12:34:06.370Z,78.30
2018-03-17T12:35:09.183Z,78.20
2018-03-17T12:36:05.735Z,78.10
2018-03-17T12:37:05.738Z,78.10
2018-03-17T12:38:05.582Z,77.60
2018-03-17T12:39:06.119Z,77.20
2018-03-17T12:40:05.582Z,76.70
2018-03-17T12:41:06.410Z,76.90
2018-03-17T12:42:09.325Z,77.20
2018-03-17T12:43:10.752Z,77.20
2018-03-17T12:44:05.952Z,77.40
2018-03-17T12:45:06.460Z,77.40
2018-03-17T12:46:11.136Z,77.20
2018-03-17T12:47:09.574Z,77.20
2018-03-17T12:48:06.152Z,77.20
2018-03-17T12:49:13.442Z,77.70
2018-03-17T12:50:10.754Z,77.90
2018-03-17T12:51:05.810Z,78.00
2018-03-17T12:52:06.344Z,78.10